Time;durP1;ratioP1;P1;durP2;ratioP2;P2;SDS_P1;SDS_P2;PMS_P1;PMS_P2;Temp;Humidity;BMP_temperature;BMP_pressure;BME280_temperature;BME280_humidity;BME280_pressure;Samples;Min_cycle;Max_cycle;Signal;HPM_P1;HPM_P2
2024/01/12 00:01:12;;;;;;;24.38;2.55;;;;;;;;;;5070483;28;20078;-50
2024/01/12 00:03:39;;;;;;;23.05;2.50;;;;;;;;;;5068835;28;20568;-53
2024/01/12 00:06:06;;;;;;;20.40;3.03;;;;;;;;;;5070717;28;20089;-55
2024/01/12 00:08:33;;;;;;;16.15;2.50;;;;;;;;;;5062086;28;20382;-56
2024/01/12 00:11:00;;;;;;;24.00;3.05;;;;;;;;;;5072465;28;20024;-54
2024/01/12 00:13:27;;;;;;;27.25;4.03;;;;;;;;;;5071891;28;20037;-59
2024/01/12 00:15:54;;;;;;;19.13;3.30;;;;;;;;;;5071732;28;20028;-58
2024/01/12 00:18:21;;;;;;;25.08;3.13;;;;;;;;;;5066598;28;20024;-51
2024/01/12 00:20:48;;;;;;;17.98;3.35;;;;;;;;;;5068617;28;20051;-57
2024/01/12 00:23:15;;;;;;;17.70;3.38;;;;;;;;;;5067608;28;20032;-55
2024/01/12 00:25:42;;;;;;;14.63;2.90;;;;;;;;;;5073369;28;20040;-55
2024/01/12 00:28:09;;;;;;;17.08;3.17;;;;;;;;;;5073165;28;20033;-54
2024/01/12 00:30:36;;;;;;;23.60;3.50;;;;;;;;;;5073446;28;20056;-58
2024/01/12 00:33:05;;;;;;;16.15;3.25;;;;;;;;;;5067355;28;20024;-57
2024/01/12 00:35:32;;;;;;;15.65;3.20;;;;;;;;;;5062148;28;20475;-60
2024/01/12 00:37:59;;;;;;;22.52;2.85;;;;;;;;;;5071952;28;20081;-57
2024/01/12 00:40:26;;;;;;;23.55;3.55;;;;;;;;;;5074342;28;20522;-54
2024/01/12 00:42:53;;;;;;;17.70;3.38;;;;;;;;;;5069027;28;20090;-53
2024/01/12 00:45:20;;;;;;;19.02;3.53;;;;;;;;;;5068876;28;20478;-56
2024/01/12 00:47:47;;;;;;;15.68;2.50;;;;;;;;;;5074135;28;20043;-59
2024/01/12 00:50:14;;;;;;;16.10;3.03;;;;;;;;;;5065628;28;20500;-53
2024/01/12 00:52:41;;;;;;;15.60;3.30;;;;;;;;;;5072044;28;20544;-58
2024/01/12 00:55:08;;;;;;;27.33;3.40;;;;;;;;;;5073698;28;20469;-53
2024/01/12 00:57:35;;;;;;;17.50;2.80;;;;;;;;;;5073935;28;20037;-54
2024/01/12 01:00:04;;;;;;;17.52;2.80;;;;;;;;;;5073554;28;20027;-56
2024/01/12 01:02:31;;;;;;;14.88;2.60;;;;;;;;;;5073551;28;20040;-54
2024/01/12 01:04:58;;;;;;;19.65;2.95;;;;;;;;;;5068860;28;20063;-57
2024/01/12 01:07:25;;;;;;;10.07;2.63;;;;;;;;;;5066604;28;20043;-53
2024/01/12 01:09:52;;;;;;;17.80;2.92;;;;;;;;;;5067618;28;20021;-51
2024/01/12 01:12:19;;;;;;;16.35;2.60;;;;;;;;;;5072139;28;20037;-49
2024/01/12 01:14:46;;;;;;;14.48;2.75;;;;;;;;;;5067653;28;20422;-54
2024/01/12 01:17:13;;;;;;;19.02;2.88;;;;;;;;;;5062716;28;20032;-53
2024/01/12 01:19:40;;;;;;;15.57;2.50;;;;;;;;;;5057414;28;20080;-52
2024/01/12 01:22:07;;;;;;;9.30;2.30;;;;;;;;;;5060193;28;20036;-52
2024/01/12 01:24:34;;;;;;;15.32;2.92;;;;;;;;;;5071993;28;20068;-49
2024/01/12 01:27:02;;;;;;;14.13;2.58;;;;;;;;;;5061704;28;20587;-52
2024/01/12 01:29:29;;;;;;;14.60;2.85;;;;;;;;;;5066363;28;20419;-49
2024/01/12 01:31:56;;;;;;;12.48;2.25;;;;;;;;;;5067658;28;20025;-50
2024/01/12 01:34:23;;;;;;;23.65;3.45;;;;;;;;;;5064241;28;20502;-57
2024/01/12 01:36:50;;;;;;;17.27;3.00;;;;;;;;;;5063040;28;20507;-55
2024/01/12 01:39:17;;;;;;;16.65;2.80;;;;;;;;;;5068363;28;20028;-53
2024/01/12 01:41:44;;;;;;;11.98;2.38;;;;;;;;;;5056508;28;20028;-59
2024/01/12 01:44:10;;;;;;;11.00;2.38;;;;;;;;;;5058934;28;20033;-56
2024/01/12 01:46:37;;;;;;;15.52;2.25;;;;;;;;;;5055591;28;20025;-56
2024/01/12 01:49:05;;;;;;;13.07;2.60;;;;;;;;;;5062952;28;20028;-58
2024/01/12 01:51:32;;;;;;;15.85;2.72;;;;;;;;;;5063086;28;20460;-56
2024/01/12 01:53:59;;;;;;;17.95;2.95;;;;;;;;;;5062818;28;20033;-55
2024/01/12 01:56:27;;;;;;;14.82;3.42;;;;;;;;;;5069423;28;20086;-54
2024/01/12 01:58:54;;;;;;;27.85;5.32;;;;;;;;;;5056191;28;20091;-57
2024/01/12 02:01:21;;;;;;;48.25;7.65;;;;;;;;;;5070070;28;20091;-55
2024/01/12 02:03:49;;;;;;;43.78;7.35;;;;;;;;;;5070798;28;20157;-51
2024/01/12 02:06:17;;;;;;;42.47;7.38;;;;;;;;;;5057974;28;20041;-48
2024/01/12 02:08:44;;;;;;;40.90;6.82;;;;;;;;;;5070229;28;20394;-52
2024/01/12 02:11:12;;;;;;;31.27;6.13;;;;;;;;;;5065278;28;20033;-47
2024/01/12 02:13:39;;;;;;;39.75;6.60;;;;;;;;;;5070940;28;20611;-51
2024/01/12 02:16:06;;;;;;;30.73;6.45;;;;;;;;;;5072258;28;20021;-53
2024/01/12 02:18:33;;;;;;;45.22;6.53;;;;;;;;;;5059623;28;20422;-51
2024/01/12 02:21:00;;;;;;;26.13;5.93;;;;;;;;;;5063219;28;20024;-49
2024/01/12 02:23:27;;;;;;;41.03;5.72;;;;;;;;;;5070849;28;20031;-53
2024/01/12 02:25:54;;;;;;;29.52;5.63;;;;;;;;;;5071719;28;20482;-44
2024/01/12 02:28:21;;;;;;;33.22;5.65;;;;;;;;;;5071991;28;20024;-46
2024/01/12 02:30:48;;;;;;;26.40;4.65;;;;;;;;;;5071213;28;20255;-52
2024/01/12 02:33:15;;;;;;;23.17;4.28;;;;;;;;;;5071011;28;20024;-50
2024/01/12 02:35:42;;;;;;;25.38;4.40;;;;;;;;;;5063625;28;20032;-52
2024/01/12 02:38:09;;;;;;;16.23;3.55;;;;;;;;;;5060265;28;20028;-56
2024/01/12 02:40:36;;;;;;;13.65;3.67;;;;;;;;;;5062594;28;20043;-54
2024/01/12 02:43:04;;;;;;;18.35;3.65;;;;;;;;;;5070010;28;20025;-52
2024/01/12 02:45:31;;;;;;;24.27;4.00;;;;;;;;;;5070429;28;20037;-51
2024/01/12 02:47:58;;;;;;;23.92;4.35;;;;;;;;;;5070238;28;20029;-50
2024/01/12 02:50:25;;;;;;;13.52;3.47;;;;;;;;;;5069927;28;20093;-45
2024/01/12 02:52:52;;;;;;;26.17;3.35;;;;;;;;;;5070193;28;20035;-45
2024/01/12 02:55:18;;;;;;;13.38;2.80;;;;;;;;;;5070103;28;20040;-47
2024/01/12 02:57:46;;;;;;;12.35;2.30;;;;;;;;;;5068187;28;20058;-51
2024/01/12 03:00:13;;;;;;;16.58;2.83;;;;;;;;;;5069042;28;20085;-47
2024/01/12 03:02:40;;;;;;;10.10;2.95;;;;;;;;;;5066871;28;20020;-47
2024/01/12 03:05:07;;;;;;;16.60;2.65;;;;;;;;;;5064873;28;20482;-50
2024/01/12 03:07:34;;;;;;;21.92;2.58;;;;;;;;;;5069379;28;20433;-48
2024/01/12 03:10:01;;;;;;;16.38;2.55;;;;;;;;;;5069612;28;20474;-48
2024/01/12 03:12:28;;;;;;;15.85;2.35;;;;;;;;;;5070294;28;20032;-50
2024/01/12 03:14:56;;;;;;;15.88;2.25;;;;;;;;;;5069793;28;20074;-46
2024/01/12 03:17:23;;;;;;;10.93;2.15;;;;;;;;;;5070072;28;20352;-43
2024/01/12 03:19:50;;;;;;;16.77;2.20;;;;;;;;;;5068527;28;20382;-45
2024/01/12 03:22:17;;;;;;;13.77;2.30;;;;;;;;;;5070199;28;20047;-46
2024/01/12 03:24:44;;;;;;;13.77;2.40;;;;;;;;;;5064312;28;20119;-46
2024/01/12 03:27:11;;;;;;;14.70;2.72;;;;;;;;;;5064765;28;20040;-44
2024/01/12 03:29:38;;;;;;;22.55;2.78;;;;;;;;;;5067910;28;20040;-46
2024/01/12 03:32:05;;;;;;;12.13;2.67;;;;;;;;;;5067860;28;20090;-42
2024/01/12 03:34:32;;;;;;;15.75;2.42;;;;;;;;;;5069481;28;20111;-42
2024/01/12 03:36:58;;;;;;;19.60;3.05;;;;;;;;;;5064889;28;20098;-44
2024/01/12 03:39:26;;;;;;;26.75;3.40;;;;;;;;;;5068956;28;20436;-45
2024/01/12 03:41:53;;;;;;;15.30;2.58;;;;;;;;;;5068743;28;20066;-43
2024/01/12 03:44:20;;;;;;;10.45;1.75;;;;;;;;;;5069697;28;20028;-45
2024/01/12 03:46:47;;;;;;;13.98;2.15;;;;;;;;;;5074130;28;20024;-45
2024/01/12 03:49:14;;;;;;;13.20;1.90;;;;;;;;;;5073540;28;20074;-43
2024/01/12 03:51:44;;;;;;;20.95;2.03;;;;;;;;;;5068021;28;20441;-45
2024/01/12 03:54:11;;;;;;;18.92;1.85;;;;;;;;;;5074228;28;20032;-42
2024/01/12 03:56:38;;;;;;;14.15;1.60;;;;;;;;;;5073957;28;20497;-50
2024/01/12 03:59:05;;;;;;;17.30;2.22;;;;;;;;;;5068275;28;20818;-45
2024/01/12 04:01:32;;;;;;;9.40;1.90;;;;;;;;;;5068210;28;20028;-42
2024/01/12 04:03:59;;;;;;;11.82;1.70;;;;;;;;;;5072232;28;20024;-45
2024/01/12 04:06:26;;;;;;;13.70;1.60;;;;;;;;;;5072142;28;20044;-43
2024/01/12 04:08:53;;;;;;;8.43;1.50;;;;;;;;;;5072030;28;20092;-43
2024/01/12 04:11:24;;;;;;;9.88;1.55;;;;;;;;;;5073266;28;20035;-45
2024/01/12 04:13:50;;;;;;;11.18;1.42;;;;;;;;;;5073879;28;20035;-47
2024/01/12 04:16:18;;;;;;;10.07;1.38;;;;;;;;;;5073332;28;20417;-42
2024/01/12 04:18:44;;;;;;;7.63;1.85;;;;;;;;;;5072033;28;20032;-43
2024/01/12 04:21:12;;;;;;;8.70;1.50;;;;;;;;;;5073720;28;20028;-45
2024/01/12 04:23:39;;;;;;;12.10;1.63;;;;;;;;;;5072678;28;20024;-42
2024/01/12 04:26:06;;;;;;;7.13;1.60;;;;;;;;;;5067374;28;20037;-45
2024/01/12 04:28:33;;;;;;;8.35;1.42;;;;;;;;;;5066725;28;20029;-41
2024/01/12 04:31:04;;;;;;;11.70;1.70;;;;;;;;;;5071434;28;20017;-42
2024/01/12 04:33:31;;;;;;;7.57;1.90;;;;;;;;;;5073286;28;20398;-43
2024/01/12 04:35:59;;;;;;;10.15;1.48;;;;;;;;;;5071902;28;20387;-43
2024/01/12 04:38:26;;;;;;;4.75;1.25;;;;;;;;;;5073357;28;20020;-46
2024/01/12 04:40:53;;;;;;;2.53;0.77;;;;;;;;;;5073877;28;20052;-44
2024/01/12 04:43:21;;;;;;;5.65;1.00;;;;;;;;;;5071410;28;20020;-43
2024/01/12 04:45:48;;;;;;;7.32;1.00;;;;;;;;;;5073715;28;20036;-41
2024/01/12 04:48:14;;;;;;;4.20;1.15;;;;;;;;;;5073700;28;20032;-43
2024/01/12 04:50:41;;;;;;;6.20;1.10;;;;;;;;;;5073222;28;20032;-44
2024/01/12 04:53:08;;;;;;;4.57;1.15;;;;;;;;;;5073364;28;20546;-44
2024/01/12 04:55:35;;;;;;;6.93;1.27;;;;;;;;;;5071388;28;20021;-46
2024/01/12 04:58:03;;;;;;;16.38;1.50;;;;;;;;;;5072356;28;20032;-43
2024/01/12 05:00:30;;;;;;;5.43;0.77;;;;;;;;;;5073425;28;20051;-42
2024/01/12 05:02:57;;;;;;;7.15;1.25;;;;;;;;;;5073288;28;20021;-43
2024/01/12 05:05:24;;;;;;;6.82;1.30;;;;;;;;;;5073411;28;20067;-42
2024/01/12 05:07:51;;;;;;;11.98;1.55;;;;;;;;;;5073438;28;20028;-44
2024/01/12 05:10:18;;;;;;;5.68;1.13;;;;;;;;;;5073213;28;20103;-44
2024/01/12 05:12:45;;;;;;;9.55;1.35;;;;;;;;;;5073227;28;20085;-43
2024/01/12 05:15:12;;;;;;;9.23;1.10;;;;;;;;;;5073247;28;20020;-44
2024/01/12 05:17:39;;;;;;;6.38;1.42;;;;;;;;;;5073013;28;20062;-42
2024/01/12 05:20:06;;;;;;;6.95;1.13;;;;;;;;;;5073085;28;20024;-46
2024/01/12 05:22:35;;;;;;;6.00;1.13;;;;;;;;;;5072614;28;20071;-46
2024/01/12 05:25:03;;;;;;;5.63;1.17;;;;;;;;;;5070751;28;20039;-44
2024/01/12 05:27:30;;;;;;;3.72;1.10;;;;;;;;;;5072409;28;20051;-43
2024/01/12 05:29:57;;;;;;;4.30;0.95;;;;;;;;;;5072388;28;20020;-44
2024/01/12 05:32:24;;;;;;;3.10;0.73;;;;;;;;;;5071178;28;20028;-44
2024/01/12 05:34:52;;;;;;;4.40;1.00;;;;;;;;;;5072253;28;20013;-44
2024/01/12 05:37:19;;;;;;;5.57;1.13;;;;;;;;;;5072905;28;20035;-43
2024/01/12 05:39:47;;;;;;;4.65;0.88;;;;;;;;;;5072774;28;20029;-44
2024/01/12 05:42:14;;;;;;;4.00;1.00;;;;;;;;;;5073153;28;20021;-43
2024/01/12 05:44:40;;;;;;;4.32;0.82;;;;;;;;;;5072620;28;20478;-43
2024/01/12 05:47:07;;;;;;;3.22;0.90;;;;;;;;;;5072755;28;20020;-42
2024/01/12 05:49:39;;;;;;;4.32;1.17;;;;;;;;;;5063602;28;20029;-42
2024/01/12 05:52:06;;;;;;;7.50;0.98;;;;;;;;;;5063420;28;20036;-42
2024/01/12 05:54:33;;;;;;;9.25;0.98;;;;;;;;;;5061414;28;20028;-42
2024/01/12 05:57:00;;;;;;;3.88;1.20;;;;;;;;;;5062700;28;20020;-43
2024/01/12 05:59:27;;;;;;;3.45;1.10;;;;;;;;;;5063590;28;20028;-42
2024/01/12 06:01:54;;;;;;;5.82;1.00;;;;;;;;;;5070730;28;20367;-42
2024/01/12 06:04:21;;;;;;;7.22;1.25;;;;;;;;;;5072469;28;20027;-41
2024/01/12 06:06:48;;;;;;;2.97;1.00;;;;;;;;;;5072073;28;20024;-42
2024/01/12 06:09:15;;;;;;;4.03;0.80;;;;;;;;;;5062953;28;20112;-42
2024/01/12 06:11:42;;;;;;;3.83;0.98;;;;;;;;;;5062368;28;20405;-42
2024/01/12 06:14:10;;;;;;;5.45;1.30;;;;;;;;;;5061089;28;20107;-42
2024/01/12 06:16:37;;;;;;;3.53;0.80;;;;;;;;;;5062871;28;20025;-42
2024/01/12 06:19:04;;;;;;;5.78;1.33;;;;;;;;;;5062441;28;20024;-42
2024/01/12 06:21:31;;;;;;;5.30;1.05;;;;;;;;;;5060913;28;20029;-42
2024/01/12 06:23:58;;;;;;;2.13;0.75;;;;;;;;;;5072125;28;20394;-41
2024/01/12 06:26:24;;;;;;;4.68;0.93;;;;;;;;;;5072141;28;20048;-42
2024/01/12 06:28:51;;;;;;;5.20;1.10;;;;;;;;;;5072497;28;20038;-41
2024/01/12 06:31:18;;;;;;;4.88;0.98;;;;;;;;;;5072390;28;20048;-42
2024/01/12 06:33:45;;;;;;;6.10;1.13;;;;;;;;;;5072299;28;20078;-41
2024/01/12 06:36:12;;;;;;;8.20;0.95;;;;;;;;;;5072296;28;20039;-42
2024/01/12 06:38:39;;;;;;;5.82;1.27;;;;;;;;;;5072343;28;20060;-41
2024/01/12 06:41:06;;;;;;;6.00;1.08;;;;;;;;;;5072189;28;20374;-42
2024/01/12 06:43:33;;;;;;;3.72;0.90;;;;;;;;;;5072206;28;20016;-42
2024/01/12 06:46:00;;;;;;;2.95;0.88;;;;;;;;;;5071902;28;20071;-42
2024/01/12 06:48:27;;;;;;;9.15;1.17;;;;;;;;;;5072139;28;20027;-41
2024/01/12 06:50:54;;;;;;;5.60;0.90;;;;;;;;;;5072118;28;20039;-41
2024/01/12 06:53:21;;;;;;;2.75;0.90;;;;;;;;;;5072024;28;20478;-42
2024/01/12 06:55:48;;;;;;;5.68;0.88;;;;;;;;;;5071949;28;20025;-41
2024/01/12 06:58:15;;;;;;;3.67;1.10;;;;;;;;;;5072008;28;20772;-43
2024/01/12 07:00:42;;;;;;;7.50;1.20;;;;;;;;;;5071898;28;20091;-42
2024/01/12 07:03:09;;;;;;;4.05;0.88;;;;;;;;;;5071999;28;20020;-41
2024/01/12 07:05:35;;;;;;;3.35;0.90;;;;;;;;;;5071767;28;20056;-41
2024/01/12 07:08:02;;;;;;;6.00;1.15;;;;;;;;;;5071897;28;20476;-41
2024/01/12 07:10:29;;;;;;;5.47;1.00;;;;;;;;;;5071751;28;20112;-41
2024/01/12 07:12:56;;;;;;;4.18;0.85;;;;;;;;;;5071750;28;20107;-41
2024/01/12 07:15:23;;;;;;;6.50;0.93;;;;;;;;;;5071706;28;20077;-41
2024/01/12 07:17:50;;;;;;;4.65;1.00;;;;;;;;;;5071652;28;20686;-41
2024/01/12 07:20:18;;;;;;;4.57;1.02;;;;;;;;;;5071122;28;20662;-41
2024/01/12 07:22:45;;;;;;;6.60;1.10;;;;;;;;;;5071666;28;20024;-41
2024/01/12 07:25:12;;;;;;;4.93;0.93;;;;;;;;;;5071503;28;20060;-43
2024/01/12 07:27:39;;;;;;;7.05;1.10;;;;;;;;;;5071475;28;20056;-41
2024/01/12 07:30:06;;;;;;;2.83;0.90;;;;;;;;;;5071721;28;20103;-42
2024/01/12 07:32:35;;;;;;;2.67;0.80;;;;;;;;;;5071639;28;20028;-41
2024/01/12 07:35:02;;;;;;;5.95;0.90;;;;;;;;;;5071545;28;20028;-41
2024/01/12 07:37:29;;;;;;;3.90;1.00;;;;;;;;;;5071610;28;20756;-42
2024/01/12 07:39:55;;;;;;;4.60;1.00;;;;;;;;;;5071549;28;20028;-41
2024/01/12 07:42:22;;;;;;;4.93;0.93;;;;;;;;;;5071533;28;20020;-41
2024/01/12 07:44:49;;;;;;;4.55;1.25;;;;;;;;;;5071306;28;20041;-42
2024/01/12 07:47:17;;;;;;;4.88;0.82;;;;;;;;;;5070216;28;20102;-41
2024/01/12 07:49:44;;;;;;;3.72;0.60;;;;;;;;;;5071436;28;20035;-41
2024/01/12 07:52:11;;;;;;;2.40;0.80;;;;;;;;;;5071401;28;20095;-43
2024/01/12 07:54:38;;;;;;;4.60;1.08;;;;;;;;;;5071311;28;20024;-41
2024/01/12 07:57:05;;;;;;;2.97;0.65;;;;;;;;;;5071387;28;20094;-42
2024/01/12 07:59:31;;;;;;;3.42;0.82;;;;;;;;;;5071266;28;20470;-43
2024/01/12 08:01:59;;;;;;;4.30;1.00;;;;;;;;;;5071335;28;20024;-41
2024/01/12 08:04:26;;;;;;;5.28;1.10;;;;;;;;;;5070970;28;20051;-41
2024/01/12 08:06:53;;;;;;;3.95;0.80;;;;;;;;;;5069820;28;20120;-42
2024/01/12 08:09:20;;;;;;;3.58;0.80;;;;;;;;;;5071264;28;20103;-41
2024/01/12 08:11:47;;;;;;;3.88;0.90;;;;;;;;;;5071185;28;20025;-41
2024/01/12 08:14:14;;;;;;;4.80;0.98;;;;;;;;;;5071090;28;20131;-42
2024/01/12 08:16:41;;;;;;;4.00;0.90;;;;;;;;;;5071067;28;20028;-42
2024/01/12 08:19:08;;;;;;;3.85;0.73;;;;;;;;;;5061357;28;20064;-42
2024/01/12 08:21:35;;;;;;;7.47;1.15;;;;;;;;;;5051101;28;20021;-42
2024/01/12 08:24:02;;;;;;;2.58;1.00;;;;;;;;;;5050951;28;20021;-41
2024/01/12 08:26:29;;;;;;;4.28;0.95;;;;;;;;;;5050887;28;20594;-42
2024/01/12 08:29:01;;;;;;;2.50;0.93;;;;;;;;;;5050972;28;20525;-42
2024/01/12 08:31:30;;;;;;;3.97;0.98;;;;;;;;;;5052961;28;20029;-42
2024/01/12 08:33:58;;;;;;;5.97;0.90;;;;;;;;;;5054630;28;20094;-41
2024/01/12 08:36:25;;;;;;;3.65;0.82;;;;;;;;;;5054699;28;20029;-41
2024/01/12 08:38:52;;;;;;;3.90;0.98;;;;;;;;;;5054546;28;20043;-44
2024/01/12 08:41:19;;;;;;;3.90;0.95;;;;;;;;;;5074535;28;20104;-42
2024/01/12 08:43:46;;;;;;;6.25;0.85;;;;;;;;;;5074446;28;20036;-42
2024/01/12 08:46:13;;;;;;;6.03;0.98;;;;;;;;;;5074325;28;20436;-41
2024/01/12 08:48:41;;;;;;;4.95;1.00;;;;;;;;;;5074418;28;20028;-41
2024/01/12 08:51:08;;;;;;;4.55;1.10;;;;;;;;;;5074263;28;20552;-41
2024/01/12 08:53:35;;;;;;;2.72;0.90;;;;;;;;;;5074408;28;20028;-42
2024/01/12 08:56:02;;;;;;;5.78;1.10;;;;;;;;;;5074173;28;20037;-41
2024/01/12 08:58:29;;;;;;;4.18;0.70;;;;;;;;;;5074238;28;20051;-41
2024/01/12 09:00:56;;;;;;;3.70;1.00;;;;;;;;;;5073832;28;20020;-41
2024/01/12 09:03:23;;;;;;;3.17;0.90;;;;;;;;;;5073550;28;20017;-41
2024/01/12 09:05:50;;;;;;;5.63;0.80;;;;;;;;;;5073350;28;20553;-42
2024/01/12 09:11:20;;;;;;;5.25;1.25;;;;;;;;;;5074408;28;20035;-42
2024/01/12 09:13:48;;;;;;;3.58;0.80;;;;;;;;;;5074234;28;20029;-39
2024/01/12 09:16:15;;;;;;;5.45;1.00;;;;;;;;;;5073485;28;20025;-41
2024/01/12 09:18:43;;;;;;;20.13;1.92;;;;;;;;;;5073948;28;20030;-41
2024/01/12 09:21:14;;;;;;;15.73;2.00;;;;;;;;;;5073804;28;20028;-41
2024/01/12 09:23:43;;;;;;;16.63;2.10;;;;;;;;;;5073664;28;20021;-43
2024/01/12 09:26:11;;;;;;;21.90;1.65;;;;;;;;;;5072632;28;20048;-42
2024/01/12 09:28:41;;;;;;;9.55;1.40;;;;;;;;;;5073215;28;20416;-43
2024/01/12 09:31:08;;;;;;;7.97;1.35;;;;;;;;;;5073142;28;20021;-41
2024/01/12 09:33:35;;;;;;;13.57;1.63;;;;;;;;;;5064023;28;20027;-41
2024/01/12 09:36:03;;;;;;;11.25;1.10;;;;;;;;;;5062931;28;20020;-41
2024/01/12 09:38:30;;;;;;;6.35;1.10;;;;;;;;;;5061855;28;20507;-41
2024/01/12 09:40:58;;;;;;;6.15;1.13;;;;;;;;;;5063549;28;20383;-41
2024/01/12 09:43:27;;;;;;;5.78;1.02;;;;;;;;;;5065833;28;20036;-43
2024/01/12 09:45:54;;;;;;;5.30;1.30;;;;;;;;;;5073171;28;20107;-41
2024/01/12 09:48:21;;;;;;;16.33;2.13;;;;;;;;;;5073271;28;20166;-42
2024/01/12 09:50:51;;;;;;;31.95;2.33;;;;;;;;;;5073274;28;20035;-42
2024/01/12 09:53:19;;;;;;;11.55;1.77;;;;;;;;;;5072960;28;20691;-42
2024/01/12 09:55:46;;;;;;;11.30;1.60;;;;;;;;;;5072824;28;20029;-42
2024/01/12 09:58:14;;;;;;;12.75;1.48;;;;;;;;;;5073197;28;20103;-42
2024/01/12 10:00:41;;;;;;;3.88;0.88;;;;;;;;;;5073198;28;20025;-42
2024/01/12 10:03:09;;;;;;;4.05;1.05;;;;;;;;;;5073114;28;20016;-42
2024/01/12 10:05:39;;;;;;;7.38;1.45;;;;;;;;;;5072699;28;20032;-42
2024/01/12 10:08:08;;;;;;;5.68;1.02;;;;;;;;;;5073030;28;20025;-44
2024/01/12 10:10:35;;;;;;;7.35;0.98;;;;;;;;;;5073013;28;20071;-42
2024/01/12 10:13:02;;;;;;;8.18;1.30;;;;;;;;;;5072819;28;20433;-42
2024/01/12 10:15:30;;;;;;;8.00;1.30;;;;;;;;;;5072674;28;20033;-42
2024/01/12 10:17:57;;;;;;;5.15;1.05;;;;;;;;;;5072562;28;20055;-42
2024/01/12 10:20:24;;;;;;;6.55;1.15;;;;;;;;;;5072641;28;20111;-42
2024/01/12 10:22:58;;;;;;;5.60;1.08;;;;;;;;;;5072538;28;20033;-42
2024/01/12 10:25:25;;;;;;;5.10;0.93;;;;;;;;;;5072482;28;20024;-43
2024/01/12 10:27:58;;;;;;;4.28;1.05;;;;;;;;;;5072369;28;20057;-42
2024/01/12 10:30:25;;;;;;;6.80;1.08;;;;;;;;;;5072441;28;20439;-43
2024/01/12 10:32:52;;;;;;;6.70;1.50;;;;;;;;;;5072506;28;20390;-42
2024/01/12 10:35:22;;;;;;;6.65;1.15;;;;;;;;;;5072268;28;20489;-42
2024/01/12 10:37:49;;;;;;;6.40;1.20;;;;;;;;;;5071691;28;20039;-44
2024/01/12 10:40:16;;;;;;;5.50;1.25;;;;;;;;;;5070508;28;20021;-42
2024/01/12 10:42:47;;;;;;;6.82;1.10;;;;;;;;;;5052187;28;20082;-42
2024/01/12 10:45:14;;;;;;;6.30;1.00;;;;;;;;;;5052023;28;20037;-42
2024/01/12 10:47:44;;;;;;;13.65;1.30;;;;;;;;;;5052447;28;20390;-43
2024/01/12 10:50:14;;;;;;;13.85;1.80;;;;;;;;;;5052253;28;20509;-42
2024/01/12 10:52:47;;;;;;;6.45;1.40;;;;;;;;;;5069437;28;20032;-42
2024/01/12 10:55:16;;;;;;;7.97;1.40;;;;;;;;;;5071043;28;20064;-44
2024/01/12 10:57:46;;;;;;;5.85;1.80;;;;;;;;;;5071936;28;20047;-43
2024/01/12 11:00:14;;;;;;;9.38;1.40;;;;;;;;;;5071923;28;20073;-42
2024/01/12 11:02:42;;;;;;;10.35;1.38;;;;;;;;;;5071838;28;20028;-43
2024/01/12 11:05:09;;;;;;;8.68;1.45;;;;;;;;;;5071694;28;20040;-43
2024/01/12 11:07:36;;;;;;;8.25;1.13;;;;;;;;;;5071927;28;20025;-43
2024/01/12 11:10:03;;;;;;;7.85;1.20;;;;;;;;;;5071756;28;20023;-44
2024/01/12 11:12:34;;;;;;;8.63;1.50;;;;;;;;;;5071868;28;20024;-44
2024/01/12 11:15:02;;;;;;;6.70;1.58;;;;;;;;;;5071389;28;20024;-42
2024/01/12 11:17:34;;;;;;;8.05;1.38;;;;;;;;;;5071697;28;20030;-42
2024/01/12 11:20:20;;;;;;;8.23;1.80;;;;;;;;;;5071816;28;20030;-43
2024/01/12 11:22:48;;;;;;;10.48;2.00;;;;;;;;;;5070260;28;20036;-43
2024/01/12 11:25:15;;;;;;;6.55;1.75;;;;;;;;;;5067044;28;20055;-40
2024/01/12 11:27:43;;;;;;;505.55;22.85;;;;;;;;;;5070689;28;20052;-49
2024/01/12 11:30:11;;;;;;;65.38;5.18;;;;;;;;;;5060290;28;20482;-33
2024/01/12 11:32:38;;;;;;;35.95;3.10;;;;;;;;;;5070533;28;20081;-34
2024/01/12 11:35:14;;;;;;;13.45;1.92;;;;;;;;;;5068583;28;20544;-34
2024/01/12 11:37:45;;;;;;;12.65;2.05;;;;;;;;;;5061645;28;20039;-35
2024/01/12 11:40:13;;;;;;;35.20;3.95;;;;;;;;;;5061181;28;20558;-34
2024/01/12 11:42:43;;;;;;;81.55;8.63;;;;;;;;;;5065143;28;20044;-34
2024/01/12 11:45:11;;;;;;;127.60;10.93;;;;;;;;;;5068950;28;20520;-37
2024/01/12 11:47:42;;;;;;;201.68;18.65;;;;;;;;;;5071102;28;20105;-40
2024/01/12 11:50:11;;;;;;;78.53;7.00;;;;;;;;;;5067768;28;20449;-38
2024/01/12 11:52:39;;;;;;;28.65;3.10;;;;;;;;;;5067975;28;20036;-35
2024/01/12 11:55:10;;;;;;;9.90;2.15;;;;;;;;;;5064643;28;20498;-42
2024/01/12 11:57:38;;;;;;;10.93;2.63;;;;;;;;;;5070651;28;20032;-42
2024/01/12 12:00:06;;;;;;;10.38;2.17;;;;;;;;;;5071083;28;20501;-42
2024/01/12 12:02:36;;;;;;;15.07;2.35;;;;;;;;;;5071192;28;20020;-42
2024/01/12 12:05:07;;;;;;;18.35;2.75;;;;;;;;;;5071018;28;20090;-43
2024/01/12 12:07:36;;;;;;;8.43;2.00;;;;;;;;;;5075032;28;20059;-42
2024/01/12 12:10:03;;;;;;;11.13;2.10;;;;;;;;;;5075102;28;20037;-43
2024/01/12 12:12:30;;;;;;;17.40;2.42;;;;;;;;;;5075170;28;20029;-43
2024/01/12 12:14:58;;;;;;;48.45;4.25;;;;;;;;;;5075133;28;20025;-42
2024/01/12 12:17:28;;;;;;;58.55;5.18;;;;;;;;;;5075099;28;20025;-43
2024/01/12 12:19:55;;;;;;;38.38;4.28;;;;;;;;;;5074998;28;20021;-43
2024/01/12 12:22:22;;;;;;;36.90;3.50;;;;;;;;;;5074992;28;20021;-42
2024/01/12 12:24:49;;;;;;;15.68;2.22;;;;;;;;;;5074697;28;20098;-42
2024/01/12 12:27:16;;;;;;;14.60;2.38;;;;;;;;;;5074722;28;20398;-43
2024/01/12 12:29:44;;;;;;;9.93;2.00;;;;;;;;;;5074823;28;20025;-43
2024/01/12 12:32:18;;;;;;;6.85;2.10;;;;;;;;;;5074710;28;20048;-43
2024/01/12 12:34:45;;;;;;;12.80;2.05;;;;;;;;;;5074552;28;20104;-42
2024/01/12 12:37:16;;;;;;;17.88;2.65;;;;;;;;;;5074614;28;20082;-43
2024/01/12 12:39:43;;;;;;;9.80;1.85;;;;;;;;;;5074673;28;20386;-43
2024/01/12 12:42:10;;;;;;;8.60;2.58;;;;;;;;;;5074628;28;20032;-45
2024/01/12 12:44:37;;;;;;;7.90;1.90;;;;;;;;;;5074340;28;20028;-45
2024/01/12 12:47:05;;;;;;;8.13;1.77;;;;;;;;;;5074566;28;20021;-45
2024/01/12 12:49:41;;;;;;;9.88;2.00;;;;;;;;;;5073662;28;20096;-46
2024/01/12 12:52:09;;;;;;;13.57;2.53;;;;;;;;;;5068315;28;20489;-45
2024/01/12 12:54:36;;;;;;;16.95;2.55;;;;;;;;;;5071926;28;20111;-45
2024/01/12 12:57:03;;;;;;;20.05;2.42;;;;;;;;;;5072415;28;20040;-46
2024/01/12 12:59:35;;;;;;;16.73;2.20;;;;;;;;;;5071500;28;20028;-45
2024/01/12 13:02:02;;;;;;;13.07;2.40;;;;;;;;;;5073272;28;20032;-45
2024/01/12 13:04:29;;;;;;;12.35;2.20;;;;;;;;;;5072597;28;20052;-41
2024/01/12 13:06:57;;;;;;;16.80;2.60;;;;;;;;;;5071853;28;20032;-41
2024/01/12 13:09:25;;;;;;;19.40;2.33;;;;;;;;;;5059754;28;20024;-36
2024/01/12 13:11:52;;;;;;;15.15;2.53;;;;;;;;;;5070384;28;20505;-36
2024/01/12 13:14:19;;;;;;;19.02;2.47;;;;;;;;;;5073591;28;20467;-39
2024/01/12 13:16:46;;;;;;;14.35;2.67;;;;;;;;;;5073300;28;20098;-41
2024/01/12 13:19:13;;;;;;;14.43;2.40;;;;;;;;;;5073056;28;20089;-40
2024/01/12 13:21:40;;;;;;;16.67;2.28;;;;;;;;;;5073178;28;20807;-39
2024/01/12 13:24:10;;;;;;;10.07;1.80;;;;;;;;;;5072648;28;20595;-40
2024/01/12 13:26:37;;;;;;;7.07;1.90;;;;;;;;;;5071865;28;20052;-40
2024/01/12 13:29:04;;;;;;;11.70;2.20;;;;;;;;;;5071234;28;20513;-38
2024/01/12 13:31:35;;;;;;;12.75;2.78;;;;;;;;;;5065637;28;20445;-37
2024/01/12 13:34:02;;;;;;;12.88;2.30;;;;;;;;;;5065401;28;20115;-38
2024/01/12 13:36:29;;;;;;;10.05;2.10;;;;;;;;;;5069881;28;20031;-41
2024/01/12 13:38:56;;;;;;;10.50;1.85;;;;;;;;;;5069665;28;20070;-40
2024/01/12 13:41:23;;;;;;;14.98;2.00;;;;;;;;;;5071950;28;20040;-42
2024/01/12 13:43:50;;;;;;;10.63;2.40;;;;;;;;;;5069729;28;20043;-40
2024/01/12 13:46:17;;;;;;;15.35;2.33;;;;;;;;;;5071048;28;20032;-42
2024/01/12 13:48:44;;;;;;;10.73;1.73;;;;;;;;;;5070177;28;20021;-40
2024/01/12 13:51:11;;;;;;;13.02;2.50;;;;;;;;;;5072255;28;20040;-40
2024/01/12 13:53:38;;;;;;;11.05;2.00;;;;;;;;;;5071873;28;20138;-41
2024/01/12 13:56:06;;;;;;;8.18;2.10;;;;;;;;;;5072995;28;20025;-43
2024/01/12 13:58:33;;;;;;;13.23;2.30;;;;;;;;;;5072662;28;20107;-42
2024/01/12 14:01:01;;;;;;;7.10;1.98;;;;;;;;;;5072883;28;20040;-39
2024/01/12 14:03:28;;;;;;;8.15;2.28;;;;;;;;;;5070743;28;20047;-40
2024/01/12 14:05:56;;;;;;;10.75;2.05;;;;;;;;;;5067493;28;20036;-39
2024/01/12 14:08:24;;;;;;;9.90;1.67;;;;;;;;;;5066080;28;20028;-43
2024/01/12 14:10:53;;;;;;;10.35;2.22;;;;;;;;;;5067231;28;20110;-42
2024/01/12 14:13:21;;;;;;;14.27;2.30;;;;;;;;;;5071541;28;20393;-42
2024/01/12 14:15:48;;;;;;;12.73;2.40;;;;;;;;;;5063911;28;20025;-42
2024/01/12 14:18:15;;;;;;;6.47;2.10;;;;;;;;;;5069934;28;20020;-42
2024/01/12 14:20:42;;;;;;;10.60;2.20;;;;;;;;;;5072091;28;20082;-42
2024/01/12 14:23:09;;;;;;;9.48;2.17;;;;;;;;;;5072464;28;20115;-41
2024/01/12 14:25:36;;;;;;;12.70;1.90;;;;;;;;;;5072014;28;20031;-42
2024/01/12 14:28:04;;;;;;;13.98;2.10;;;;;;;;;;5071948;28;20041;-42
2024/01/12 14:30:31;;;;;;;14.98;2.28;;;;;;;;;;5072154;28;20051;-43
2024/01/12 14:32:58;;;;;;;15.95;2.13;;;;;;;;;;5072007;28;20041;-42
2024/01/12 14:35:25;;;;;;;14.73;2.13;;;;;;;;;;5072113;28;20036;-40
2024/01/12 14:37:52;;;;;;;8.75;2.00;;;;;;;;;;5066044;28;20443;-41
2024/01/12 14:40:20;;;;;;;9.23;1.85;;;;;;;;;;5067112;28;20097;-42